Meteógrafos Informações Meteorológicas em tempo real
Aeroporto de Congonhas
20-02-2020 22:58

Temperatura atual: 23 graus 73 F    Umidade relativa: 83 %
Velocidade do vento: 04 nós 7 Km/h    Direção: 320 graus NW
Ajuste do altímetro ..: 1016 HPA
Visibilidade: Ótima    Tempo presente: Céu Limpo

Observação
Data Hora BRTTempo°CUmidadePressãoVentoVisib.
20/02 - 21:58   Parcialmente Nublado 23° 83% 1016 Noroeste/10 km/h OK
20/02 - 20:58   Céu Encoberto 25° 73% 1016 Norte-noroeste/5 km/h OK
20/02 - 19:56   Trovoada recente 25° 73% 1015 Leste/5 km/h OK
20/02 - 18:56   Trovoadas 25° 73% 1015 Leste/9 km/h OK
20/02 - 17:58   Não Disponível 26° 69% 1013 Sul-sudeste/12 km/h OK
20/02 - 16:56   Não Disponível 27° 69% 1012 Sul-sudeste/10 km/h OK
20/02 - 15:56   Não Disponível 26° 69% 1012 Sul/12 km/h OK
20/02 - 14:56   Chovendo fraco 26° 69% 1013 Sul-sudoeste/21 km/h OK
20/02 - 13:58   Trovoadas na vizinhança 30° 51% 1013 Oeste-noroeste/19 km/h OK
20/02 - 12:56   Poucas nuvens esparsas 28° 65% 1015 Norte/16 km/h OK
20/02 - 11:56   Poucas nuvens esparsas 30° 48% 1015 Noroeste/19 km/h OK
20/02 - 09:58   Céu Limpo 27° 61% 1016 Norte-noroeste/14 km/h CAVO
20/02 - 08:58   Céu Limpo 26° 69% 1016 Norte-noroeste/14 km/h CAVO
20/02 - 07:58   Céu Limpo 24° 78% 1015 Noroeste/10 km/h OK
20/02 - 06:58   Céu Limpo 23° 83% 1015 Noroeste/7 km/h OK
20/02 - 05:56   Céu Limpo 22° 88% 1014 Noroeste/5 km/h OK
20/02 - 04:56   Céu Limpo 22° 88% 1014 Norte/5 km/h CAVO
20/02 - 03:56   Céu Limpo 22° 88% 1014 Noroeste/5 km/h OK
20/02 - 02:58   Não Disponível 22° 88% 1014 Noroeste/7 km/h OK
20/02 - 01:58   Céu Limpo 23° 83% 1014 Norte-nordeste/3 km/h OK
20/02 - 00:56   Céu Limpo 23° 83% 1015 Nordeste/5 km/h OK
19/02 - 23:58   Céu Limpo 23° 83% 1015 Nordeste/5 km/h OK
19/02 - 22:56   Poucas nuvens esparsas 23° 83% 1015 Nordeste/5 km/h 9999
19/02 - 21:56   Céu Limpo 23° 83% 1015 Nordeste/10 km/h OK

Termo de Uso  |   Links Úteis  |   Imprensa  |  Anuncie  |  Fale Conosco  |  Versão Celular  |   Política de Privacidade

Apolo11.com - Todos os direitos reservados - 2000 - 2020

"A primeira lei natural deveria ser esta: perdoar-nos mutuamente nossas tolices" - Voltaire